Time;durP1;ratioP1;P1;durP2;ratioP2;P2;SDS_P1;SDS_P2;PMS_P1;PMS_P2;Temp;Humidity;BMP_temperature;BMP_pressure;BME280_temperature;BME280_humidity;BME280_pressure;Samples;Min_cycle;Max_cycle;Signal;HPM_P1;HPM_P2
2022/09/17 00:01:03;;;;;;;0.68;0.68;;;;;;;10.51;66.20;98602.41;4932138;29;20048;-70
2022/09/17 00:03:30;;;;;;;1.27;0.80;;;;;;;10.45;66.51;98600.56;4935416;29;20044;-71
2022/09/17 00:06:04;;;;;;;0.93;0.52;;;;;;;10.44;66.84;98587.50;4934855;29;20052;-70
2022/09/17 00:08:32;;;;;;;1.92;0.73;;;;;;;10.40;66.64;98593.19;4935215;29;20400;-69
2022/09/17 00:11:07;;;;;;;1.30;0.70;;;;;;;10.39;66.59;98591.56;4919545;29;20063;-71
2022/09/17 00:13:33;;;;;;;2.13;0.80;;;;;;;10.38;66.83;98592.59;4919526;29;20047;-70
2022/09/17 00:16:00;;;;;;;1.15;0.70;;;;;;;10.38;66.92;98587.31;4935006;29;20392;-70
2022/09/17 00:18:27;;;;;;;0.85;0.60;;;;;;;10.37;66.74;98593.59;4935960;29;20046;-71
2022/09/17 00:20:53;;;;;;;0.95;0.70;;;;;;;10.35;67.03;98592.16;4935010;29;20115;-70
2022/09/17 00:23:20;;;;;;;0.85;0.80;;;;;;;10.32;66.86;98598.63;4919211;29;20051;-70
2022/09/17 00:25:46;;;;;;;0.73;0.52;;;;;;;10.29;67.08;98595.59;4934869;29;20048;-71
2022/09/17 00:28:13;;;;;;;0.82;0.70;;;;;;;10.27;67.38;98595.78;4934850;29;20504;-71
2022/09/17 00:30:42;;;;;;;0.70;0.70;;;;;;;10.26;67.02;98599.44;4934865;29;20106;-70
2022/09/17 00:33:12;;;;;;;0.75;0.75;;;;;;;10.23;67.45;98599.78;4934451;29;20049;-70
2022/09/17 00:35:38;;;;;;;1.15;0.70;;;;;;;10.23;67.49;98596.31;4934741;29;20399;-70
2022/09/17 00:38:05;;;;;;;1.23;0.50;;;;;;;10.22;67.24;98597.34;4935779;29;20546;-70
2022/09/17 00:40:32;;;;;;;1.10;1.00;;;;;;;10.20;67.12;98602.00;4934838;29;20051;-70
2022/09/17 00:42:59;;;;;;;1.55;0.60;;;;;;;10.18;67.30;98595.09;4918943;29;20047;-70
2022/09/17 00:45:26;;;;;;;0.68;0.55;;;;;;;10.15;67.39;98597.31;4934452;29;20040;-70
2022/09/17 00:47:57;;;;;;;0.77;0.50;;;;;;;10.12;67.60;98602.97;4934409;29;20099;-70
2022/09/17 00:50:40;;;;;;;0.50;0.50;;;;;;;10.07;67.49;98602.75;4934807;29;20111;-71
2022/09/17 00:53:16;;;;;;;0.60;0.60;;;;;;;10.03;67.77;98596.22;4918782;29;20075;-71
2022/09/17 00:55:47;;;;;;;0.52;0.52;;;;;;;10.00;68.09;98596.59;4934536;29;20400;-71
2022/09/17 00:58:17;;;;;;;1.10;1.00;;;;;;;9.97;68.03;98597.00;4918532;29;20493;-70
2022/09/17 01:00:45;;;;;;;0.70;0.70;;;;;;;9.95;68.31;98601.66;4934671;29;20497;-70
2022/09/17 01:03:13;;;;;;;0.50;0.50;;;;;;;9.95;67.98;98601.66;4942074;28;20404;-71
2022/09/17 01:06:03;;;;;;;0.90;0.57;;;;;;;9.95;68.19;98602.47;4918133;29;20102;-70
2022/09/17 01:08:37;;;;;;;0.82;0.60;;;;;;;9.93;68.05;98602.66;4934272;29;20050;-70
2022/09/17 01:11:30;;;;;;;0.60;0.60;;;;;;;9.92;68.38;98603.69;4934455;29;20051;-70
2022/09/17 01:14:20;;;;;;;0.63;0.63;;;;;;;9.90;68.38;98605.69;4931445;29;20467;-70
2022/09/17 01:16:54;;;;;;;0.82;0.60;;;;;;;9.87;68.50;98598.13;4917799;29;20048;-70
2022/09/17 01:19:48;;;;;;;1.13;0.52;;;;;;;9.88;68.62;98605.06;4918246;29;20592;-71
2022/09/17 01:22:24;;;;;;;0.55;0.50;;;;;;;9.90;68.52;98600.41;4934127;29;20047;-70
2022/09/17 01:25:06;;;;;;;0.70;0.70;;;;;;;9.91;68.40;98594.09;4935130;29;20107;-70
2022/09/17 01:28:00;;;;;;;0.60;0.60;;;;;;;9.88;68.40;98597.16;4933610;29;20043;-70
2022/09/17 01:30:58;;;;;;;0.55;0.55;;;;;;;9.86;68.39;98593.88;4934022;29;20047;-71
2022/09/17 01:33:40;;;;;;;1.35;0.90;;;;;;;9.84;68.51;98593.25;4933700;29;20055;-69
2022/09/17 01:36:28;;;;;;;0.70;0.60;;;;;;;9.85;68.43;98594.09;4934738;29;20035;-69
2022/09/17 01:39:11;;;;;;;0.60;0.60;;;;;;;9.85;68.49;98600.16;4933934;29;20043;-70
2022/09/17 01:41:49;;;;;;;0.65;0.60;;;;;;;9.84;68.33;98598.53;4935237;29;20048;-70
2022/09/17 01:44:25;;;;;;;0.75;0.60;;;;;;;9.82;68.14;98602.38;4933368;29;20055;-70
2022/09/17 01:46:56;;;;;;;0.68;0.50;;;;;;;9.80;68.38;98610.50;4933653;29;20095;-71
2022/09/17 01:49:24;;;;;;;0.75;0.50;;;;;;;9.80;68.28;98610.50;4933820;29;20056;-69
2022/09/17 01:51:53;;;;;;;0.63;0.40;;;;;;;9.82;68.78;98608.47;4918238;29;20052;-69
2022/09/17 01:54:27;;;;;;;0.73;0.60;;;;;;;9.82;68.59;98613.75;4917811;29;20051;-71
2022/09/17 01:57:00;;;;;;;0.65;0.55;;;;;;;9.78;68.23;98612.50;4933496;29;20185;-69
2022/09/17 01:59:36;;;;;;;1.08;0.60;;;;;;;9.73;68.14;98612.25;4917868;29;20048;-69
2022/09/17 02:02:12;;;;;;;0.50;0.50;;;;;;;9.71;68.66;98621.38;4934838;29;20044;-69
2022/09/17 02:04:57;;;;;;;0.50;0.50;;;;;;;9.70;68.66;98632.94;4933368;29;20047;-69
2022/09/17 02:07:24;;;;;;;0.70;0.70;;;;;;;9.67;68.78;98639.41;4914353;29;20500;-69
2022/09/17 02:10:01;;;;;;;0.60;0.60;;;;;;;9.61;68.93;98635.72;4899162;29;20067;-69
2022/09/17 02:12:34;;;;;;;0.70;0.70;;;;;;;9.57;68.85;98631.03;4915811;29;20385;-69
2022/09/17 02:15:06;;;;;;;1.27;0.80;;;;;;;9.55;69.07;98635.66;4898661;29;20389;-70
2022/09/17 02:17:41;;;;;;;0.80;0.60;;;;;;;9.52;69.17;98638.69;4915563;29;20385;-69
2022/09/17 02:20:08;;;;;;;0.60;0.60;;;;;;;9.50;69.61;98636.22;4914365;29;20048;-70
2022/09/17 02:22:42;;;;;;;1.33;0.60;;;;;;;9.51;69.73;98642.31;4915663;29;20100;-69
2022/09/17 02:25:23;;;;;;;0.95;0.60;;;;;;;9.48;69.38;98629.53;4914527;29;20048;-69
2022/09/17 02:28:03;;;;;;;0.52;0.52;;;;;;;9.47;69.46;98635.78;4915828;29;20056;-70
2022/09/17 02:30:31;;;;;;;0.85;0.77;;;;;;;9.44;69.92;98634.34;4914470;29;20556;-69
2022/09/17 02:33:01;;;;;;;0.63;0.52;;;;;;;9.42;69.77;98634.53;4924173;29;20052;-70
2022/09/17 02:35:30;;;;;;;1.80;0.95;;;;;;;9.41;69.87;98627.63;4933106;29;20094;-70
2022/09/17 02:37:58;;;;;;;0.80;0.60;;;;;;;9.40;69.79;98620.72;4934238;29;20070;-70
2022/09/17 02:40:30;;;;;;;0.40;0.40;;;;;;;9.39;69.87;98631.47;4933424;29;20103;-69
2022/09/17 02:43:12;;;;;;;0.65;0.65;;;;;;;9.39;69.96;98629.66;4934547;29;20087;-70
2022/09/17 02:46:10;;;;;;;1.08;0.82;;;;;;;9.37;69.74;98623.72;4934488;29;20404;-68
2022/09/17 02:49:00;;;;;;;0.65;0.65;;;;;;;9.34;69.86;98629.38;4884734;29;20140;-68
2022/09/17 02:51:32;;;;;;;1.63;0.90;;;;;;;9.30;69.99;98625.50;4934872;29;20099;-69
2022/09/17 02:54:14;;;;;;;1.10;0.73;;;;;;;9.27;70.20;98623.25;4933523;29;20048;-68
2022/09/17 02:56:50;;;;;;;1.30;0.60;;;;;;;9.25;70.12;98629.72;4937744;29;20044;-68
2022/09/17 02:59:23;;;;;;;1.13;0.70;;;;;;;9.25;70.14;98625.25;4938106;29;20048;-68
2022/09/17 03:01:58;;;;;;;1.13;0.90;;;;;;;9.26;70.33;98628.69;4937921;29;20051;-68
2022/09/17 03:04:27;;;;;;;1.60;0.80;;;;;;;9.27;70.32;98633.00;4937310;29;20459;-68
2022/09/17 03:06:54;;;;;;;1.00;0.90;;;;;;;9.27;70.35;98633.00;4935907;29;20047;-68
2022/09/17 03:09:21;;;;;;;2.80;0.85;;;;;;;9.25;70.26;98633.16;4937363;29;20048;-68
2022/09/17 03:11:47;;;;;;;0.90;0.80;;;;;;;9.23;70.45;98635.19;4937936;29;20103;-68
2022/09/17 03:14:14;;;;;;;2.70;1.00;;;;;;;9.25;70.57;98635.78;4936609;29;20472;-68
2022/09/17 03:16:40;;;;;;;1.02;0.75;;;;;;;9.30;70.56;98637.88;4935865;29;20389;-68
2022/09/17 03:19:07;;;;;;;1.40;0.80;;;;;;;9.30;70.44;98638.69;4937385;29;20044;-69
2022/09/17 03:21:33;;;;;;;1.38;0.80;;;;;;;9.29;70.65;98636.25;4920217;29;20047;-68
2022/09/17 03:24:00;;;;;;;2.33;0.70;;;;;;;9.31;70.62;98636.88;4936066;29;20052;-68
2022/09/17 03:26:27;;;;;;;0.73;0.57;;;;;;;9.33;70.85;98638.31;4936035;29;20102;-68
2022/09/17 03:28:54;;;;;;;2.00;1.00;;;;;;;9.38;70.51;98635.09;4937162;29;20103;-68
2022/09/17 03:31:20;;;;;;;1.02;0.70;;;;;;;9.42;70.51;98639.00;4920692;29;20500;-68
2022/09/17 03:33:47;;;;;;;0.77;0.60;;;;;;;9.45;70.79;98635.97;4936089;29;20138;-68
2022/09/17 03:36:13;;;;;;;2.05;0.80;;;;;;;9.52;70.33;98636.06;4936880;29;20097;-70
2022/09/17 03:38:40;;;;;;;1.65;0.60;;;;;;;9.58;70.63;98632.63;4935818;29;20052;-69
2022/09/17 03:41:06;;;;;;;1.38;0.70;;;;;;;9.63;70.54;98636.38;4936237;29;20051;-70
2022/09/17 03:43:33;;;;;;;1.20;0.68;;;;;;;9.68;70.28;98633.16;4935746;29;20501;-70
2022/09/17 03:46:00;;;;;;;1.20;0.80;;;;;;;9.72;70.06;98638.88;4935752;29;20040;-70
2022/09/17 03:48:28;;;;;;;1.92;1.27;;;;;;;9.76;69.91;98640.94;4935431;29;20138;-70
2022/09/17 03:50:55;;;;;;;0.60;0.60;;;;;;;9.82;70.16;98642.78;4936607;29;20496;-70
2022/09/17 03:53:22;;;;;;;1.35;0.60;;;;;;;9.86;70.06;98646.69;4936880;29;20056;-69
2022/09/17 03:55:49;;;;;;;0.70;0.70;;;;;;;9.91;69.80;98649.56;4935639;29;20055;-69
2022/09/17 03:58:15;;;;;;;1.73;0.77;;;;;;;9.94;69.51;98661.56;4936619;29;20086;-71
2022/09/17 04:03:53;;;;;;;1.70;1.10;;;;;;;9.96;70.04;98659.56;4896521;29;20055;-69
2022/09/17 04:06:20;;;;;;;1.13;0.77;;;;;;;10.01;69.68;98662.44;4881152;29;20124;-70
2022/09/17 04:08:47;;;;;;;0.80;0.70;;;;;;;10.06;69.85;98657.38;4894682;29;20048;-69
2022/09/17 04:11:13;;;;;;;0.60;0.50;;;;;;;10.13;69.58;98658.25;4898626;29;20093;-72
2022/09/17 04:13:40;;;;;;;0.50;0.50;;;;;;;10.20;69.67;98668.03;4897787;29;20056;-72
2022/09/17 04:16:06;;;;;;;1.40;0.50;;;;;;;10.25;69.51;98666.50;4897133;29;20045;-70
2022/09/17 04:18:33;;;;;;;1.10;0.80;;;;;;;10.29;69.65;98659.81;4897214;29;20056;-68
2022/09/17 04:21:00;;;;;;;2.45;1.00;;;;;;;10.30;68.98;98669.38;4881577;29;20052;-69
2022/09/17 04:23:26;;;;;;;0.98;0.80;;;;;;;10.29;69.03;98669.56;4897236;29;20044;-69
2022/09/17 04:25:54;;;;;;;1.27;0.80;;;;;;;10.29;69.24;98662.47;4881617;29;20076;-69
2022/09/17 04:28:22;;;;;;;1.48;0.88;;;;;;;10.29;69.25;98657.19;4881409;29;20044;-67
2022/09/17 04:30:48;;;;;;;1.95;0.90;;;;;;;10.31;69.57;98671.00;4881509;29;20052;-68
2022/09/17 04:33:15;;;;;;;1.27;0.75;;;;;;;10.27;69.54;98656.53;4869800;29;20379;-67
2022/09/17 04:35:42;;;;;;;1.38;0.93;;;;;;;10.26;69.56;98660.19;4878530;29;20049;-67
2022/09/17 04:38:09;;;;;;;0.63;0.57;;;;;;;10.27;69.97;98661.81;4879478;29;20454;-68
2022/09/17 04:40:35;;;;;;;0.80;0.80;;;;;;;10.26;70.04;98656.75;4862792;29;20393;-68
2022/09/17 04:43:02;;;;;;;1.13;0.90;;;;;;;10.22;70.09;98664.22;4862883;29;20063;-67
2022/09/17 04:45:32;;;;;;;1.38;1.00;;;;;;;10.18;69.94;98663.78;4879344;29;20105;-70
2022/09/17 04:47:59;;;;;;;1.85;0.90;;;;;;;10.14;69.98;98669.63;4862704;29;20143;-69
2022/09/17 04:50:25;;;;;;;2.30;0.85;;;;;;;10.10;70.31;98673.66;4878229;29;20053;-68
2022/09/17 04:52:52;;;;;;;1.45;0.77;;;;;;;10.11;70.36;98681.38;4862750;29;20493;-68
2022/09/17 04:55:18;;;;;;;1.13;0.70;;;;;;;10.16;70.39;98678.16;4879307;29;20081;-68
2022/09/17 04:57:50;;;;;;;1.23;1.00;;;;;;;10.21;70.27;98683.72;4862121;29;20566;-69
2022/09/17 05:00:19;;;;;;;0.70;0.70;;;;;;;10.23;70.26;98691.44;4862387;29;20060;-69
2022/09/17 05:02:50;;;;;;;1.55;0.90;;;;;;;10.25;70.19;98686.81;4864042;29;20057;-68
2022/09/17 05:05:18;;;;;;;1.58;0.80;;;;;;;10.27;70.22;98692.72;4871484;29;20064;-68
2022/09/17 05:07:45;;;;;;;1.15;0.77;;;;;;;10.30;70.09;98687.88;4877641;29;20057;-68
2022/09/17 05:10:15;;;;;;;3.10;1.00;;;;;;;10.34;70.47;98685.66;4877600;29;20501;-68
2022/09/17 05:12:47;;;;;;;1.50;1.02;;;;;;;10.38;70.03;98686.91;4877839;29;20056;-69
2022/09/17 05:15:14;;;;;;;0.95;0.90;;;;;;;10.40;70.22;98685.69;4877807;29;20513;-68
2022/09/17 05:17:40;;;;;;;1.10;0.70;;;;;;;10.45;70.15;98686.91;4861577;29;20514;-68
2022/09/17 05:20:08;;;;;;;1.10;0.70;;;;;;;10.47;70.37;98687.56;4877260;29;20045;-68
2022/09/17 05:22:38;;;;;;;1.25;0.90;;;;;;;10.48;69.95;98690.00;4877510;29;20044;-68
2022/09/17 05:25:05;;;;;;;1.55;1.13;;;;;;;10.45;69.78;98690.41;4877699;29;20462;-69
2022/09/17 05:27:32;;;;;;;1.65;1.00;;;;;;;10.39;70.02;98689.34;4877339;29;20501;-68
2022/09/17 05:29:58;;;;;;;2.63;1.00;;;;;;;10.33;70.21;98687.47;4862244;29;20093;-68
2022/09/17 05:32:25;;;;;;;1.98;1.38;;;;;;;10.33;70.18;98698.06;4861896;29;20521;-68
2022/09/17 05:34:51;;;;;;;1.45;0.95;;;;;;;10.35;70.02;98695.19;4869537;29;20057;-68
2022/09/17 05:37:18;;;;;;;1.30;1.10;;;;;;;10.35;70.12;98698.66;4861790;29;20057;-68
2022/09/17 05:39:45;;;;;;;1.13;0.90;;;;;;;10.37;70.33;98695.84;4877671;29;20174;-69
2022/09/17 05:42:11;;;;;;;0.98;0.80;;;;;;;10.41;70.33;98703.19;4877313;29;20510;-68
2022/09/17 05:44:38;;;;;;;3.78;1.90;;;;;;;10.43;70.10;98713.56;4877294;29;20064;-68
2022/09/17 05:47:04;;;;;;;2.22;1.20;;;;;;;10.43;69.86;98710.09;4861727;29;20085;-68
2022/09/17 05:49:31;;;;;;;2.33;1.13;;;;;;;10.44;70.10;98712.53;4878616;29;20052;-68
2022/09/17 05:51:57;;;;;;;1.55;0.98;;;;;;;10.45;70.13;98711.56;4878489;29;20053;-69
2022/09/17 05:54:24;;;;;;;1.67;1.05;;;;;;;10.48;70.17;98713.78;4877294;29;20532;-69
2022/09/17 05:56:54;;;;;;;1.25;1.00;;;;;;;10.55;69.90;98719.13;4877342;29;20442;-68
2022/09/17 05:59:21;;;;;;;2.33;1.00;;;;;;;10.61;69.74;98716.53;4878646;29;20078;-68
2022/09/17 06:01:49;;;;;;;2.70;1.20;;;;;;;10.68;69.89;98716.53;4861846;29;20394;-68
2022/09/17 06:04:18;;;;;;;1.60;1.13;;;;;;;10.77;69.96;98725.94;4878248;29;20041;-68
2022/09/17 06:06:45;;;;;;;2.72;1.20;;;;;;;10.83;69.48;98727.00;4861653;29;20052;-69
2022/09/17 06:09:11;;;;;;;1.40;1.02;;;;;;;10.87;69.51;98726.41;4877410;29;20061;-68
2022/09/17 06:11:38;;;;;;;0.95;0.90;;;;;;;10.94;69.51;98726.47;4861801;29;20049;-68
2022/09/17 06:14:04;;;;;;;3.60;1.00;;;;;;;11.03;69.27;98727.91;4861677;29;20049;-68
2022/09/17 06:16:31;;;;;;;1.85;1.10;;;;;;;11.08;68.80;98735.25;4877110;29;20049;-68
2022/09/17 06:18:57;;;;;;;1.40;1.10;;;;;;;11.09;68.68;98728.94;4865626;29;20045;-68
2022/09/17 06:21:24;;;;;;;1.20;1.00;;;;;;;11.10;68.97;98734.06;4873116;29;20052;-68
2022/09/17 06:23:51;;;;;;;2.97;1.13;;;;;;;11.17;68.77;98726.13;4889333;29;20070;-68
2022/09/17 06:26:17;;;;;;;1.20;1.10;;;;;;;11.22;68.35;98731.63;4873843;29;20041;-68
2022/09/17 06:28:44;;;;;;;1.95;1.00;;;;;;;11.31;68.29;98727.00;4873124;29;20049;-68
2022/09/17 06:31:12;;;;;;;1.33;0.88;;;;;;;11.45;68.39;98735.78;4892609;29;20073;-68
2022/09/17 06:33:39;;;;;;;1.30;1.10;;;;;;;11.58;68.05;98739.28;4892946;29;20057;-68
2022/09/17 06:36:09;;;;;;;1.88;0.85;;;;;;;11.75;68.19;98738.88;4893474;29;20459;-68
2022/09/17 06:38:40;;;;;;;;;;;;;;;11.84;67.51;98740.38;4893167;29;20060;-68
2022/09/17 06:41:07;;;;;;;1.75;0.93;;;;;;;11.84;67.55;98741.19;4890313;29;19930;-68
2022/09/17 06:43:33;;;;;;;3.67;1.20;;;;;;;11.87;67.57;98743.41;4885649;29;20049;-68
2022/09/17 06:46:04;;;;;;;2.30;0.93;;;;;;;11.90;66.93;98745.66;4864428;29;20108;-68
2022/09/17 06:48:33;;;;;;;1.30;1.20;;;;;;;11.89;67.03;98741.41;4880141;29;20060;-68
2022/09/17 06:51:05;;;;;;;1.20;1.10;;;;;;;11.97;67.12;98744.88;4864683;29;20067;-68
2022/09/17 06:53:32;;;;;;;2.13;1.30;;;;;;;12.08;66.60;98747.75;4880283;29;20068;-69
2022/09/17 06:56:00;;;;;;;1.67;1.00;;;;;;;12.15;66.77;98745.06;4865296;29;20056;-69
2022/09/17 06:58:32;;;;;;;1.80;0.90;;;;;;;12.27;66.64;98740.78;4865863;29;20045;-69
2022/09/17 07:01:00;;;;;;;1.10;0.95;;;;;;;12.37;65.78;98751.00;4864598;29;20087;-69
2022/09/17 07:03:28;;;;;;;2.67;1.00;;;;;;;12.37;65.54;98743.84;4879551;29;20076;-69
2022/09/17 07:05:56;;;;;;;2.88;1.27;;;;;;;12.36;65.99;98741.38;4879748;29;20049;-69
2022/09/17 07:08:23;;;;;;;1.70;1.20;;;;;;;12.42;65.48;98742.41;4864259;29;20128;-69
2022/09/17 07:10:49;;;;;;;2.15;1.40;;;;;;;12.44;65.52;98746.47;4881010;29;20124;-69
2022/09/17 07:13:16;;;;;;;2.25;1.10;;;;;;;12.53;64.90;98745.28;4864506;29;20044;-70
2022/09/17 07:15:42;;;;;;;1.65;1.00;;;;;;;12.59;64.92;98747.06;4880157;29;20053;-71
2022/09/17 07:18:10;;;;;;;4.65;1.90;;;;;;;12.63;64.57;98747.47;4880851;29;20048;-70
2022/09/17 07:20:38;;;;;;;2.40;1.27;;;;;;;12.64;64.90;98738.50;4881184;29;20421;-71
2022/09/17 07:23:04;;;;;;;2.03;1.40;;;;;;;12.66;65.00;98748.91;4880945;29;20060;-71
2022/09/17 07:25:31;;;;;;;1.67;1.10;;;;;;;12.69;64.62;98746.63;4880875;29;20101;-71
2022/09/17 07:27:58;;;;;;;2.30;1.10;;;;;;;12.71;64.52;98749.91;4864047;29;20047;-71
2022/09/17 07:30:25;;;;;;;2.30;1.25;;;;;;;12.67;64.03;98748.69;4881012;29;20056;-71
2022/09/17 07:32:51;;;;;;;3.55;1.38;;;;;;;12.66;64.23;98752.38;4880553;29;20044;-71
2022/09/17 07:35:18;;;;;;;3.00;1.20;;;;;;;12.70;64.17;98743.00;4864143;29;20550;-71
2022/09/17 07:37:44;;;;;;;2.38;1.10;;;;;;;12.73;63.98;98747.84;4880360;29;20063;-72
2022/09/17 07:40:11;;;;;;;2.20;1.10;;;;;;;12.76;63.74;98750.09;4879208;29;20565;-71
2022/09/17 07:42:37;;;;;;;2.42;1.10;;;;;;;12.85;63.98;98748.84;4862718;29;20057;-71
2022/09/17 07:45:05;;;;;;;4.88;1.63;;;;;;;12.95;63.53;98744.97;4863688;29;20049;-71
2022/09/17 07:47:37;;;;;;;2.05;1.20;;;;;;;13.03;64.02;98744.72;4880169;29;20037;-71
2022/09/17 07:50:05;;;;;;;1.45;1.20;;;;;;;13.20;63.70;98737.91;4863728;29;20124;-71
2022/09/17 07:52:32;;;;;;;2.30;1.42;;;;;;;13.45;63.42;98738.03;4880352;29;20049;-71
2022/09/17 07:54:58;;;;;;;2.40;1.17;;;;;;;13.56;62.54;98733.91;4880246;29;20053;-71
2022/09/17 07:57:24;;;;;;;2.60;1.10;;;;;;;13.64;62.68;98744.28;4879978;29;20049;-71
2022/09/17 07:59:51;;;;;;;1.80;1.10;;;;;;;13.77;62.39;98746.03;4880258;29;20052;-72
2022/09/17 08:02:20;;;;;;;1.70;1.00;;;;;;;13.80;62.11;98740.28;4879862;29;20045;-71
2022/09/17 08:04:50;;;;;;;3.08;1.33;;;;;;;13.74;61.44;98741.94;4863411;29;20099;-70
2022/09/17 08:07:16;;;;;;;1.65;1.00;;;;;;;13.68;61.93;98747.31;4878450;29;20041;-70
2022/09/17 08:09:43;;;;;;;2.17;1.10;;;;;;;13.58;62.28;98748.56;4879993;29;20101;-69
2022/09/17 08:12:09;;;;;;;1.38;1.05;;;;;;;13.56;62.14;98748.00;4863178;29;20494;-70
2022/09/17 08:14:36;;;;;;;2.25;1.42;;;;;;;13.59;62.24;98747.56;4863203;29;20116;-70
2022/09/17 08:17:06;;;;;;;2.38;1.20;;;;;;;13.52;62.12;98741.47;4878501;29;20049;-69
2022/09/17 08:19:32;;;;;;;1.77;1.23;;;;;;;13.43;62.45;98736.59;4878366;29;20049;-69
2022/09/17 08:21:59;;;;;;;2.53;1.23;;;;;;;13.38;62.21;98732.75;4879755;29;20045;-68
2022/09/17 08:24:29;;;;;;;2.80;1.40;;;;;;;13.44;62.08;98735.59;4878663;29;20067;-70
2022/09/17 08:26:56;;;;;;;2.38;1.45;;;;;;;13.52;62.58;98738.00;4878077;29;20049;-69
2022/09/17 08:29:22;;;;;;;1.35;1.10;;;;;;;13.54;62.41;98739.41;4863165;29;20065;-69
2022/09/17 08:31:49;;;;;;;2.88;1.13;;;;;;;13.70;62.21;98742.59;4878167;29;20057;-69
2022/09/17 08:34:16;;;;;;;1.35;1.17;;;;;;;13.87;61.37;98736.53;4863715;29;20045;-69
2022/09/17 08:36:43;;;;;;;1.33;0.93;;;;;;;14.00;61.57;98740.13;4878352;29;20504;-68
2022/09/17 08:39:11;;;;;;;1.90;1.05;;;;;;;14.11;61.28;98732.25;4878505;29;20053;-68
2022/09/17 08:42:01;;;;;;;1.13;0.88;;;;;;;14.16;60.69;98730.81;4879630;29;20112;-69
2022/09/17 08:44:46;;;;;;;2.20;0.90;;;;;;;14.26;59.43;98731.13;4879599;29;20053;-69
2022/09/17 08:47:32;;;;;;;1.48;1.00;;;;;;;14.32;59.00;98736.38;4879322;29;20033;-68
2022/09/17 08:50:02;;;;;;;3.72;1.10;;;;;;;14.27;59.43;98730.09;4879530;29;20057;-68
2022/09/17 08:52:58;;;;;;;1.40;1.00;;;;;;;14.37;58.57;98736.56;4878090;29;20061;-68
2022/09/17 08:55:49;;;;;;;1.63;0.80;;;;;;;14.63;57.77;98733.91;4848555;29;20524;-69
2022/09/17 08:58:34;;;;;;;1.90;0.80;;;;;;;14.77;57.15;98740.69;4879411;29;20051;-67
2022/09/17 09:01:30;;;;;;;1.98;0.90;;;;;;;14.92;56.23;98735.00;4878413;29;20708;-68
2022/09/17 09:04:28;;;;;;;2.92;1.13;;;;;;;15.05;54.89;98742.84;4840251;29;20540;-68
2022/09/17 09:07:01;;;;;;;2.65;0.95;;;;;;;15.19;55.11;98748.84;4879554;29;20124;-69
2022/09/17 09:09:35;;;;;;;1.85;0.80;;;;;;;15.29;54.42;98739.25;4863162;29;20049;-69
2022/09/17 09:12:13;;;;;;;1.63;0.63;;;;;;;15.58;54.25;98742.16;4879294;29;20053;-68
2022/09/17 09:14:55;;;;;;;1.60;0.82;;;;;;;15.85;53.50;98739.97;4879562;29;20128;-68
2022/09/17 09:17:24;;;;;;;1.58;0.80;;;;;;;15.88;52.16;98739.53;4878986;29;20530;-68
2022/09/17 09:19:52;;;;;;;4.03;1.17;;;;;;;15.83;51.86;98747.38;4878108;29;20073;-68
2022/09/17 09:22:40;;;;;;;2.40;1.00;;;;;;;15.88;51.39;98747.53;4862111;29;20108;-68
2022/09/17 09:25:20;;;;;;;3.95;0.80;;;;;;;15.96;50.40;98751.69;4879299;29;20048;-69
2022/09/17 09:28:11;;;;;;;1.48;0.77;;;;;;;15.91;50.72;98748.91;4878821;29;20501;-68
2022/09/17 09:31:14;;;;;;;1.83;0.70;;;;;;;15.92;51.06;98747.84;4878040;29;20052;-68
2022/09/17 09:33:43;;;;;;;2.20;1.13;;;;;;;15.97;50.78;98746.16;4862236;29;20092;-68
2022/09/17 09:36:20;;;;;;;1.40;0.70;;;;;;;16.03;50.88;98753.22;4859034;29;20498;-69
2022/09/17 09:39:00;;;;;;;2.45;1.10;;;;;;;16.20;49.99;98756.00;4859222;29;20462;-69
2022/09/17 09:41:42;;;;;;;2.70;0.85;;;;;;;16.26;49.52;98748.97;4858879;29;20498;-68
2022/09/17 09:44:11;;;;;;;3.47;1.02;;;;;;;16.31;48.85;98751.75;4859011;29;20522;-67
2022/09/17 09:47:03;;;;;;;2.38;0.82;;;;;;;16.40;48.87;98752.22;4859025;29;20057;-68
2022/09/17 09:49:59;;;;;;;3.15;1.33;;;;;;;16.50;48.57;98747.94;4859142;29;20061;-69
2022/09/17 09:52:35;;;;;;;2.67;0.70;;;;;;;16.55;47.96;98744.56;4843575;29;20053;-68
2022/09/17 09:55:11;;;;;;;1.92;0.75;;;;;;;16.38;48.28;98749.78;4858999;29;20042;-68
2022/09/17 09:57:51;;;;;;;2.13;0.98;;;;;;;16.16;48.79;98748.72;4858826;29;20073;-68
2022/09/17 10:00:38;;;;;;;2.78;1.02;;;;;;;15.92;48.72;98750.50;4860060;29;20046;-68
2022/09/17 10:03:21;;;;;;;2.08;0.90;;;;;;;15.66;49.09;98763.19;4869035;29;20052;-69
2022/09/17 10:06:11;;;;;;;2.45;1.10;;;;;;;15.46;49.54;98773.28;4876922;29;20148;-69
2022/09/17 10:08:50;;;;;;;3.13;0.82;;;;;;;15.28;50.51;98761.63;4882118;29;20041;-69
2022/09/17 10:11:23;;;;;;;3.25;0.90;;;;;;;15.07;51.81;98765.56;4881140;29;20060;-69
2022/09/17 10:13:50;;;;;;;3.78;1.20;;;;;;;14.80;51.93;98772.19;4882638;29;20056;-69
2022/09/17 10:16:26;;;;;;;1.58;0.73;;;;;;;14.65;53.34;98787.69;4880772;29;20573;-70
2022/09/17 10:19:05;;;;;;;3.90;1.33;;;;;;;14.52;53.96;98797.41;4882080;29;20072;-70
2022/09/17 10:21:38;;;;;;;1.77;0.95;;;;;;;14.42;54.48;98798.91;4881866;29;20489;-67
2022/09/17 10:24:25;;;;;;;0.97;0.60;;;;;;;14.23;55.20;98798.03;4880910;29;20056;-70
2022/09/17 10:27:01;;;;;;;1.70;0.60;;;;;;;14.00;55.87;98796.78;4881675;29;20073;-70
2022/09/17 10:29:27;;;;;;;2.40;0.70;;;;;;;13.80;56.51;98806.72;4880683;29;20053;-69
2022/09/17 10:31:56;;;;;;;1.00;0.55;;;;;;;13.61;57.17;98811.09;4881660;29;20059;-69
2022/09/17 10:34:26;;;;;;;1.92;0.75;;;;;;;13.43;58.25;98819.75;4864877;29;20104;-69
2022/09/17 10:36:57;;;;;;;1.58;0.63;;;;;;;13.35;58.51;98812.84;4880191;29;20509;-69
2022/09/17 10:39:23;;;;;;;2.58;0.82;;;;;;;13.25;59.04;98812.44;4880363;29;20083;-69
2022/09/17 10:42:02;;;;;;;1.15;0.70;;;;;;;13.16;59.35;98812.88;4880543;29;20087;-69
2022/09/17 10:44:35;;;;;;;1.77;0.98;;;;;;;13.14;59.86;98805.09;4880350;29;20532;-69
2022/09/17 10:47:12;;;;;;;1.67;0.90;;;;;;;13.23;60.72;98803.91;4880088;29;20135;-69
2022/09/17 10:49:42;;;;;;;1.77;0.82;;;;;;;13.38;60.12;98799.13;4864407;29;20537;-69
2022/09/17 10:52:11;;;;;;;1.10;0.80;;;;;;;13.53;60.22;98795.41;4864337;29;20049;-71
2022/09/17 10:55:15;;;;;;;0.65;0.50;;;;;;;13.69;60.37;98800.22;4880120;29;20056;-70
2022/09/17 10:58:03;;;;;;;1.33;0.63;;;;;;;13.83;60.13;98798.28;4880002;29;20053;-69
2022/09/17 11:01:02;;;;;;;1.67;0.70;;;;;;;13.97;60.05;98799.03;4864640;29;20056;-69
2022/09/17 11:03:47;;;;;;;2.15;0.80;;;;;;;14.06;59.66;98801.22;4879615;29;20041;-70
2022/09/17 11:06:57;;;;;;;0.95;0.80;;;;;;;14.19;59.61;98789.66;4861175;29;20139;-69
2022/09/17 11:09:40;;;;;;;1.33;0.77;;;;;;;14.34;59.24;98797.34;4845982;29;20102;-69
2022/09/17 11:12:12;;;;;;;0.82;0.70;;;;;;;14.41;59.56;98792.78;4861172;29;20049;-69
2022/09/17 11:15:13;;;;;;;1.23;0.70;;;;;;;14.41;59.41;98797.28;4862392;29;20053;-69
2022/09/17 11:17:49;;;;;;;2.05;0.75;;;;;;;14.36;59.18;98789.94;4861148;29;20038;-69
2022/09/17 11:20:31;;;;;;;1.73;0.80;;;;;;;14.32;59.19;98796.72;4861394;29;20057;-69
2022/09/17 11:23:26;;;;;;;0.98;0.60;;;;;;;14.24;59.27;98789.84;4861127;29;20088;-69
2022/09/17 11:25:57;;;;;;;1.13;0.50;;;;;;;14.20;59.06;98785.16;4861134;29;20046;-70
2022/09/17 11:28:41;;;;;;;;;;;;;;;14.08;59.25;98785.88;4861380;29;20080;-70
2022/09/17 11:31:23;;;;;;;1.25;0.57;;;;;;;13.99;59.39;98789.00;4861233;29;19924;-70
2022/09/17 11:34:10;;;;;;;1.90;0.50;;;;;;;14.00;59.79;98786.16;4877020;29;20489;-70
2022/09/17 11:36:52;;;;;;;1.77;0.70;;;;;;;14.24;59.32;98779.19;4879496;29;20053;-69
2022/09/17 11:39:35;;;;;;;1.52;0.70;;;;;;;14.54;58.42;98782.06;4880749;29;20049;-69
2022/09/17 11:42:09;;;;;;;1.42;0.60;;;;;;;14.78;58.14;98782.25;4881010;29;20061;-71
2022/09/17 11:44:44;;;;;;;1.75;0.75;;;;;;;15.11;57.86;98784.56;4881029;29;20068;-70
2022/09/17 11:47:22;;;;;;;1.15;0.60;;;;;;;15.42;57.69;98770.25;4880746;29;20049;-69
2022/09/17 11:49:59;;;;;;;1.70;0.70;;;;;;;15.58;57.83;98766.94;4880404;29;20136;-69
2022/09/17 11:52:32;;;;;;;0.85;0.70;;;;;;;15.69;57.52;98767.28;4879305;29;20072;-71
2022/09/17 11:55:16;;;;;;;2.13;0.90;;;;;;;15.74;57.74;98760.22;4863938;29;20418;-69
2022/09/17 11:57:44;;;;;;;1.67;0.80;;;;;;;15.66;57.39;98757.06;4879076;29;20136;-68
2022/09/17 12:00:18;;;;;;;1.00;0.73;;;;;;;15.60;57.20;98764.88;4863413;29;20520;-66
2022/09/17 12:03:12;;;;;;;0.93;0.68;;;;;;;15.56;57.06;98760.25;4867975;29;20049;-69
2022/09/17 12:05:45;;;;;;;1.90;0.85;;;;;;;15.40;57.07;98756.34;4878719;29;20068;-69